Terminal Aerodrome Forecast
Issued by NWS

Home | Current Version | Previous Version | Text Only | Print | Product List | Glossary Off
Versions: 1 2 3 4 5 6 7 8 9 10 11 12

000
FTUS45 KGGW 030520
TAFGDV
TAF
KGDV 030520Z 0306/0406 20007KT P6SM FEW090
     FM031500 21009KT 6SM -SN OVC015
     FM031800 24013KT P6SM BKN040
     FM032300 27012KT P6SM BKN025
     FM040200 28011G19KT P6SM SCT035=

USA.gov is the U.S. government's official web portal to all federal, state and local government web resources and services.